Latest Coastal Weather Observations for Geraldton Airport

IDW60701

Issued at 10:02 pm WST Monday 6 July 2015 (issued every 10 minutes, with the page automatically refreshed every 10 minutes)

About coastal observations | Map of coastal stations | Coastal observations for WA | Marine services | Other Formats
Station Details ID: 008315 Name: GERALDTON AIRPORT Lat: -28.80 Lon: 114.70 Height: 29.7 m
Data from the previous 72 hours. | See also: Recent months at Geraldton Airport
Date/Time
WST
Temp

°C
Wind Pressure Rain
since 9am
mm
Weather Cloud Vis
km
Sea
Height
m
Swell
Dir
 
Speed
knots
Gust
knots
hPa Trend Height
m
Period
s
Dir
06/10:00pm 10.3 E 3 3 1021.6 - 0.0 - - 10 - - - -
06/09:30pm 10.7 E 3 4 1021.8 - 0.0 - - 10 - - - -
06/09:00pm 10.9 ENE 3 4 1021.9 - 0.0 - - 10 - - - -
06/08:30pm 11.4 ENE 4 4 1021.7 - 0.0 - - 10 - - - -
06/08:00pm 12.6 ESE 4 4 1021.6 - 0.0 - - 10 - - - -
06/07:30pm 13.9 ESE 4 5 1021.5 - 0.0 - - 10 - - - -
06/07:00pm 13.9 ESE 2 4 1021.3 - 0.0 - - 10 - - - -
06/06:30pm 15.5 S 4 5 1021.1 - 0.0 - - 10 - - - -
06/06:00pm 16.4 SSW 7 8 1020.9 - 0.0 - - 10 - - - -
06/05:30pm 17.9 SSW 7 9 1020.7 - 0.0 - Mostly clear 10 - - - -
06/05:00pm 19.5 SSW 8 10 1020.5 - 0.0 - Mostly clear 10 - - - -
06/04:30pm 20.5 SSW 10 12 1020.4 - 0.0 - Mostly clear 10 - - - -
06/04:00pm 21.2 SSE 5 8 1020.2 - 0.0 - Mostly clear 10 - - - -
06/03:30pm 21.5 S 4 6 1020.2 - 0.0 - Mostly clear 10 - - - -
06/03:00pm 21.7 S 4 8 1020.5 S 0.0 Fine Mostly clear 30 - - - -
06/02:30pm 22.3 ENE 6 8 1020.4 - 0.0 - Mostly clear 10 - - - -
06/02:00pm 21.4 SE 5 9 1020.5 - 0.0 - Mostly clear 10 - - - -
06/01:30pm 21.4 ESE 5 7 1020.8 - 0.0 - Mostly clear 10 - - - -
06/01:00pm 20.9 SE 6 10 1021.0 - 0.0 - Mostly clear 10 - - - -
06/12:30pm 20.7 ESE 6 9 1021.5 - 0.0 - Mostly clear 10 - - - -
06/12:00pm 20.2 ESE 6 10 1022.2 F 0.0 Fine Mostly clear 30 - - - -
06/11:30am 20.0 E 7 10 1022.4 - 0.0 - Mostly clear 10 - - - -
06/11:00am 19.1 ENE 8 11 1022.7 - 0.0 - Mostly clear 10 - - - -
06/10:30am 18.5 ENE 8 11 1023.0 - 0.0 - Mostly clear 10 - - - -
06/10:00am 17.2 ENE 6 10 1023.1 - 0.0 - Mostly clear 10 - - - -
06/09:30am 14.9 NE 5 6 1023.1 - 0.0 - Mostly clear 10 - - - -
06/09:00am 13.0 NE 7 10 1023.1 R 0.2 Fine Mostly clear 25 - - - -
06/08:30am 11.7 NNE 8 11 1022.8 - 0.2 - Mostly clear 10 - - - -
06/08:00am 10.6 NNE 11 13 1022.5 - 0.2 - Mostly clear 10 - - - -
06/07:30am 9.8 NNE 9 12 1022.2 - 0.2 - Mostly clear 10 - - - -
06/07:00am 9.5 NNE 10 12 1022.0 - 0.2 - Mostly clear 10 - - - -
06/06:30am 9.4 NNE 8 10 1021.7 - 0.2 - Mostly clear 10 - - - -
06/06:00am 9.4 NNE 10 12 1021.6 R 0.2 Fine Mostly clear 25 - - - -
06/05:30am 9.5 NNE 9 11 1021.3 - 0.2 - - 10 - - - -
06/05:00am 10.0 NNE 9 11 1021.2 - 0.2 - - 10 - - - -
06/04:30am 9.9 NNE 10 13 1021.2 - 0.2 - - 10 - - - -
06/04:00am 9.9 NNE 9 11 1021.4 - 0.2 - - 10 - - - -
06/03:30am 9.9 NE 8 9 1021.3 - 0.0 - - 10 - - - -
06/03:00am 10.1 NNE 8 10 1021.5 - 0.0 - - 10 - - - -
06/02:30am 10.5 NNE 9 11 1021.4 - 0.0 - - 10 - - - -
06/02:00am 10.6 NNE 9 10 1021.5 - 0.0 - - 10 - - - -
06/01:30am 10.5 NNE 9 11 1021.6 - 0.0 - - 10 - - - -
06/01:00am 10.8 NE 7 8 1021.7 - 0.0 - Partly cloudy 10 - - - -
06/12:30am 11.0 NNE 8 10 1021.9 - 0.0 - - 10 - - - -
06/12:00am 10.9 NNE 8 8 1022.1 - 0.0 - - 10 - - - -
 
Date/Time
WST
Temp

°C
Wind Pressure Rain
since 9am
mm
Weather Cloud Vis
km
Sea
Height
m
Swell
Dir
 
Speed
knots
Gust
knots
hPa Trend Height
m
Period
s
Dir
05/11:30pm 10.9 NNE 7 8 1022.1 - 0.0 - - 10 - - - -
05/11:00pm 10.3 NNE 5 6 1022.2 - 0.0 - - 10 - - - -
05/10:30pm 11.0 NE 6 7 1022.2 - 0.0 - - 10 - - - -
05/10:00pm 10.7 NE 5 6 1022.2 - 0.0 - - 10 - - - -
05/09:30pm 10.8 E 3 3 1022.2 - 0.0 - - 10 - - - -
05/09:00pm 12.0 E 2 3 1022.5 - 0.0 - - 10 - - - -
05/08:30pm 12.7 ENE 3 4 1022.2 - 0.0 - - 10 - - - -
05/08:00pm 12.1 E 4 4 1022.2 - 0.0 - - 10 - - - -
05/07:30pm 12.1 E 4 6 1021.9 - 0.0 - - 10 - - - -
05/07:00pm 13.5 SE 5 6 1021.7 - 0.0 - - 10 - - - -
05/06:30pm 15.8 SSE 5 5 1021.4 - 0.0 - - 10 - - - -
05/06:00pm 17.4 SSE 3 4 1021.1 - 0.0 - - 10 - - - -
05/05:30pm 17.7 S 5 6 1020.9 - 0.0 - - 10 - - - -
05/05:00pm 19.3 SW 8 10 1020.9 - 0.0 - Mostly clear 10 - - - -
05/04:30pm 20.2 SW 10 12 1020.9 - 0.0 - Mostly clear 10 - - - -
05/04:00pm 20.7 SW 9 11 1020.7 - 0.0 - Mostly clear 10 - - - -
05/03:30pm 21.3 SW 8 11 1020.7 - 0.0 - Mostly clear 10 - - - -
05/03:00pm 21.8 NE 3 7 1020.6 S 0.0 Fine Mostly clear 30 - - - -
05/02:30pm 21.8 N 5 8 1020.5 - 0.0 - Mostly clear 10 - - - -
05/02:00pm 21.2 NNW 2 6 1020.7 - 0.0 - Mostly clear 10 - - - -
05/01:30pm 21.4 WNW 3 7 1021.2 - 0.0 - Mostly clear 10 - - - -
05/01:00pm 20.6 E 3 7 1021.5 - 0.0 - Mostly clear 10 - - - -
05/12:30pm 20.7 E 2 7 1021.7 - 0.0 - Mostly clear 10 - - - -
05/12:00pm 20.0 ESE 5 8 1022.3 F 0.0 Fine Mostly cloudy 30 - - - -
05/11:30am 19.6 ENE 6 9 1022.5 - 0.0 - Mostly clear 10 - - - -
05/11:00am 19.3 ENE 4 6 1022.8 - 0.0 - Partly cloudy 10 - - - -
05/10:30am 17.5 NE 5 8 1023.1 - 0.0 - Mostly clear 10 - - - -
05/10:00am 15.9 NNE 6 8 1023.3 - 0.0 - Partly cloudy 10 - - - -
05/09:30am 14.8 NNE 7 9 1023.3 - 0.0 - Mostly clear 10 - - - -
05/09:00am 13.5 NNE 7 9 1023.1 R 0.0 Fine Mostly clear 30 - - - -
05/08:30am 11.4 NNE 10 13 1022.7 - 0.0 - Mostly clear 10 - - - -
05/08:00am 10.7 NNE 10 12 1022.7 - 0.0 - Mostly clear 10 - - - -
05/07:30am 10.3 NNE 10 13 1022.3 - 0.0 - Mostly clear 10 - - - -
05/07:00am 9.8 NNE 11 13 1021.8 - 0.0 - Mostly clear 10 - - - -
05/06:30am 10.0 NNE 10 12 1021.6 - 0.0 - Mostly clear 10 - - - -
05/06:00am 10.4 NNE 10 13 1021.5 S 0.0 Fine Mostly clear 25 - - - -
05/05:30am 10.1 NNE 8 10 1021.3 - 0.0 - - 10 - - - -
05/05:00am 10.5 NNE 9 11 1021.1 - 0.0 - - 10 - - - -
05/04:30am 10.8 NNE 9 10 1021.2 - 0.0 - - 10 - - - -
05/04:00am 10.6 NNE 9 11 1021.3 - 0.0 - - 10 - - - -
05/03:30am 10.3 NNE 8 9 1021.5 - 0.0 - - 10 - - - -
05/03:00am 10.3 NNE 8 9 1021.6 - 0.0 - - 10 - - - -
05/02:30am 10.0 NE 7 8 1021.6 - 0.0 - - 10 - - - -
05/02:00am 10.6 NE 7 8 1021.7 - 0.0 - - 10 - - - -
05/01:30am 10.1 NE 7 7 1021.8 - 0.0 - - 10 - - - -
05/01:00am 10.6 NNE 7 8 1021.7 - 0.0 - - 10 - - - -
05/12:30am 10.3 NNE 5 7 1021.9 - 0.0 - - 10 - - - -
05/12:00am 10.0 NE 5 6 1022.2 - 0.0 - - 10 - - - -
 
Date/Time
WST
Temp

°C
Wind Pressure Rain
since 9am
mm
Weather Cloud Vis
km
Sea
Height
m
Swell
Dir
 
Speed
knots
Gust
knots
hPa Trend Height
m
Period
s
Dir
04/11:30pm 10.4 E 4 5 1022.3 - 0.0 - - 10 - - - -
04/11:00pm 11.5 CALM 0 0 1022.4 - 0.0 - - 10 - - - -
04/10:30pm 11.3 SSE 4 5 1022.5 - 0.0 - - 10 - - - -
04/10:00pm 11.4 ENE 5 5 1022.6 - 0.0 - - 10 - - - -
04/09:30pm 11.8 NE 6 7 1022.8 - 0.0 - - 10 - - - -
04/09:00pm 12.5 ESE 3 4 1022.9 - 0.0 - - 10 - - - -
04/08:30pm 13.0 ENE 3 3 1022.8 - 0.0 - - 10 - - - -
04/08:00pm 14.1 ENE 4 5 1022.5 - 0.0 - - 10 - - - -
04/07:30pm 14.6 E 4 5 1022.3 - 0.0 - Partly cloudy 10 - - - -
04/07:00pm 16.5 SE 5 6 1022.2 - 0.0 - Cloudy 10 - - - -
04/06:30pm 17.2 SSE 4 5 1021.9 - 0.0 - Cloudy 10 - - - -
04/06:00pm 16.6 S 4 5 1021.9 - 0.0 - Partly cloudy 10 - - - -
04/05:30pm 18.1 SSW 6 7 1021.8 - 0.0 - Partly cloudy 10 - - - -
04/05:00pm 19.6 SSW 8 10 1021.7 - 0.0 - - 10 - - - -
04/04:30pm 20.8 SSW 7 9 1021.5 - 0.0 - - 10 - - - -
04/04:00pm 21.3 SSW 6 8 1021.4 - 0.0 - - 10 - - - -
04/03:30pm 21.6 SW 8 10 1021.3 - 0.0 - - 10 - - - -
04/03:00pm 21.9 SW 9 12 1021.4 R 0.0 Fine Mostly clear 30 - - - -
04/02:30pm 21.9 SW 11 13 1021.3 - 0.0 - Mostly clear 10 - - - -
04/02:00pm 22.4 ENE 3 6 1021.4 - 0.0 - Partly cloudy 10 - - - -
04/01:30pm 21.9 W 2 4 1021.6 - 0.0 - Partly cloudy 10 - - - -
04/01:00pm 21.1 ESE 6 10 1021.9 - 0.0 - Partly cloudy 10 - - - -
04/12:30pm 20.8 SE 5 11 1022.3 - 0.0 - Mostly clear 10 - - - -
04/12:00pm 20.6 SSE 5 9 1023.0 F 0.0 Fine Mostly clear 30 - - - -
04/11:30am 20.3 ESE 5 9 1023.4 - 0.0 - Mostly clear 10 - - - -
04/11:00am 19.4 NNE 7 9 1023.7 - 0.0 - Mostly clear 10 - - - -
04/10:30am 17.7 NNE 7 9 1024.0 - 0.0 - Mostly clear 10 - - - -
04/10:00am 16.1 NNE 8 10 1024.1 - 0.0 - Mostly clear 10 - - - -
04/09:30am 14.9 NNE 9 10 1024.0 - 0.0 - Mostly clear 10 - - - -
04/09:15am 14.2 NNE 9 13 1023.9 - 0.0 - Mostly clear 10 - - - -
04/09:00am 13.5 NE 9 12 1023.9 R 0.0 Distant fog Mostly clear 20 - - - -
04/08:30am 12.4 NNE 9 11 1023.7 - 0.0 Fog Mostly clear 1 - - - -
04/08:00am 11.6 NNE 9 11 1023.4 - 0.0 Fog Mostly clear 1 - - - -
04/07:56am 11.5 NNE 8 10 1023.4 - 0.0 Fog Mostly clear 1 - - - -
04/07:30am 11.1 NE 8 10 1023.2 - 0.0 Fog Mostly clear 2 - - - -
04/07:00am 11.1 NNE 9 10 1022.9 - 0.0 - Mostly clear 10 - - - -
04/06:30am 10.9 NE 8 10 1022.6 - 0.0 - Mostly clear 10 - - - -
04/06:00am 11.0 NNE 9 11 1022.6 F 0.0 Fine Clear 25 - - - -
04/05:30am 10.5 NE 7 8 1022.4 - 0.0 - - 10 - - - -
04/05:05am 10.6 NE 7 7 1022.5 - 0.0 - - 10 - - - -
04/05:00am 10.8 NE 7 8 1022.5 - 0.0 - - 10 - - - -
04/04:44am 11.1 NNE 8 9 1022.6 - 0.0 - - 8 - - - -
04/04:42am 11.1 NNE 8 9 1022.6 - 0.0 - - 10 - - - -
04/04:30am 11.2 NNE 8 9 1022.6 - 0.0 - - 6 - - - -
04/04:00am 11.3 NNE 8 9 1022.6 - 0.0 - - 3 - - - -
04/03:30am 11.2 NNE 9 10 1022.8 - 0.0 - - 2 - - - -
04/03:24am 11.2 NNE 9 10 1022.8 - 0.0 - - 6 - - - -
04/03:00am 11.9 NNE 9 11 1022.9 - 0.0 - - 10 - - - -
04/02:30am 11.5 NNE 7 8 1022.8 - 0.0 - - 10 - - - -
04/02:00am 11.3 NNE 7 8 1022.9 - 0.0 - - 10 - - - -
04/01:30am 11.4 NNE 7 8 1023.1 - 0.0 - - 10 - - - -
04/01:00am 11.5 NNE 7 9 1023.3 - 0.0 - - 10 - - - -
04/12:30am 11.8 NNE 6 7 1023.4 - 0.0 - - 10 - - - -
04/12:00am 11.5 NNE 5 6 1023.6 - 0.0 - - 10 - - - -
 
Date/Time
WST
Temp

°C
Wind Pressure Rain
since 9am
mm
Weather Cloud Vis
km
Sea
Height
m
Swell
Dir
 
Speed
knots
Gust
knots
hPa Trend Height
m
Period
s
Dir
03/11:30pm 12.0 NNE 7 8 1023.6 - 0.0 - Partly cloudy 10 - - - -
03/11:00pm 11.5 ENE 4 5 1023.5 - 0.0 - - 10 - - - -
03/10:30pm 11.9 E 3 3 1023.5 - 0.0 - - 10 - - - -

Other Formats:

Comma delimited format used in spreadsheet applications
http://www.bom.gov.au/fwo/IDW60701/IDW60701.94403.axf

JavaScript Object Notation format (JSON) in row-major order
http://www.bom.gov.au/fwo/IDW60701/IDW60701.94403.json